Time;durP1;ratioP1;P1;durP2;ratioP2;P2;SDS_P1;SDS_P2;PMS_P1;PMS_P2;Temp;Humidity;BMP_temperature;BMP_pressure;BME280_temperature;BME280_humidity;BME280_pressure;Samples;Min_cycle;Max_cycle;Signal;HPM_P1;HPM_P2
2022/04/22 00:02:20;;;;;;;2.25;1.52;;;;;;;;;;5126885;28;20105;-50
2022/04/22 00:04:45;;;;;;;1.92;1.25;;;;;;;;;;5127129;28;20127;-49
2022/04/22 00:07:10;;;;;;;4.32;1.90;;;;;;;;;;5127486;28;20452;-50
2022/04/22 00:09:36;;;;;;;2.10;1.10;;;;;;;;;;5127022;28;20086;-49
2022/04/22 00:12:01;;;;;;;1.85;1.13;;;;;;;;;;5127033;28;20078;-49
2022/04/22 00:14:26;;;;;;;3.83;1.20;;;;;;;;;;5126265;28;20647;-50
2022/04/22 00:16:51;;;;;;;1.08;0.68;;;;;;;;;;5126632;28;20039;-49
2022/04/22 00:19:17;;;;;;;2.78;0.80;;;;;;;;;;5126937;28;20043;-51
2022/04/22 00:21:43;;;;;;;2.42;1.30;;;;;;;;;;5126665;28;20487;-53
2022/04/22 00:24:08;;;;;;;2.42;1.45;;;;;;;;;;5126745;28;20084;-51
2022/04/22 00:26:34;;;;;;;1.67;0.77;;;;;;;;;;5126087;27;20508;-47
2022/04/22 00:28:59;;;;;;;6.65;2.65;;;;;;;;;;5126377;28;20074;-53
2022/04/22 00:31:24;;;;;;;2.47;1.65;;;;;;;;;;5126289;28;20521;-50
2022/04/22 00:33:50;;;;;;;1.77;1.15;;;;;;;;;;5124945;28;20046;-52
2022/04/22 00:36:15;;;;;;;1.60;1.45;;;;;;;;;;5126859;28;20673;-51
2022/04/22 00:38:41;;;;;;;6.72;2.95;;;;;;;;;;5126461;28;20490;-52
2022/04/22 00:41:06;;;;;;;1.55;1.20;;;;;;;;;;5126305;28;20055;-46
2022/04/22 00:43:40;;;;;;;1.70;1.23;;;;;;;;;;5126529;28;20118;-49
2022/04/22 00:46:05;;;;;;;2.15;1.77;;;;;;;;;;5126496;28;20050;-48
2022/04/22 00:48:30;;;;;;;0.77;0.73;;;;;;;;;;5126541;28;20107;-50
2022/04/22 00:50:56;;;;;;;1.65;1.00;;;;;;;;;;5106467;28;20402;-49
2022/04/22 00:53:21;;;;;;;1.73;1.27;;;;;;;;;;5125885;28;20397;-46
2022/04/22 00:55:46;;;;;;;0.75;0.43;;;;;;;;;;5125724;28;20466;-47
2022/04/22 00:58:12;;;;;;;1.55;1.00;;;;;;;;;;5126149;28;20122;-52
2022/04/22 01:00:38;;;;;;;1.95;1.10;;;;;;;;;;5125965;28;20047;-52
2022/04/22 01:03:05;;;;;;;0.77;0.60;;;;;;;;;;5125846;28;20047;-50
2022/04/22 01:11:00;;;;;;;1.58;1.00;;;;;;;;;;5125529;28;20110;-48
2022/04/22 01:13:25;;;;;;;1.80;1.00;;;;;;;;;;5125498;28;20031;-46
2022/04/22 01:15:51;;;;;;;1.08;0.50;;;;;;;;;;5125728;28;20118;-48
2022/04/22 01:18:17;;;;;;;2.08;0.75;;;;;;;;;;5126058;28;20206;-48
2022/04/22 01:20:43;;;;;;;1.40;0.82;;;;;;;;;;5126098;28;20549;-48
2022/04/22 01:23:08;;;;;;;2.60;0.80;;;;;;;;;;5125351;28;20054;-48
2022/04/22 01:25:34;;;;;;;3.38;0.73;;;;;;;;;;5126163;28;20047;-49
2022/04/22 01:28:00;;;;;;;7.40;1.00;;;;;;;;;;5126245;28;20039;-51
2022/04/22 01:30:25;;;;;;;3.92;2.72;;;;;;;;;;5126114;28;20043;-48
2022/04/22 01:32:51;;;;;;;2.20;1.65;;;;;;;;;;5125772;28;20115;-50
2022/04/22 01:35:17;;;;;;;1.70;1.27;;;;;;;;;;5126227;28;20047;-50
2022/04/22 01:37:43;;;;;;;1.73;1.35;;;;;;;;;;5126261;27;20474;-51
2022/04/22 01:40:09;;;;;;;1.45;1.15;;;;;;;;;;5125878;28;20047;-53
2022/04/22 01:42:34;;;;;;;0.95;0.57;;;;;;;;;;5123803;28;20043;-49
2022/04/22 01:44:59;;;;;;;1.10;0.85;;;;;;;;;;5107196;28;20081;-52
2022/04/22 01:47:25;;;;;;;2.63;1.15;;;;;;;;;;5125157;28;20111;-49
2022/04/22 01:49:50;;;;;;;1.08;0.75;;;;;;;;;;5125055;28;20036;-51
2022/04/22 01:52:15;;;;;;;0.77;0.63;;;;;;;;;;5125558;28;20046;-52
2022/04/22 01:54:41;;;;;;;1.63;0.47;;;;;;;;;;5125232;28;20039;-48
2022/04/22 01:57:06;;;;;;;7.32;0.73;;;;;;;;;;5125129;28;20186;-46
2022/04/22 01:59:31;;;;;;;1.45;0.88;;;;;;;;;;5125477;28;20118;-48
2022/04/22 02:01:58;;;;;;;0.73;0.30;;;;;;;;;;5124996;28;20039;-49
2022/04/22 02:04:24;;;;;;;5.22;0.85;;;;;;;;;;5124797;28;20043;-47
2022/04/22 02:06:49;;;;;;;1.00;0.75;;;;;;;;;;5125294;28;20042;-48
2022/04/22 02:09:14;;;;;;;1.80;1.00;;;;;;;;;;5124809;28;20039;-50
2022/04/22 02:11:40;;;;;;;2.45;1.90;;;;;;;;;;5125305;28;20330;-47
2022/04/22 02:14:05;;;;;;;3.17;1.67;;;;;;;;;;5124792;28;20078;-47
2022/04/22 02:16:31;;;;;;;1.60;1.25;;;;;;;;;;5124825;28;20039;-50
2022/04/22 02:18:57;;;;;;;1.15;1.02;;;;;;;;;;5124586;28;20071;-47
2022/04/22 02:21:22;;;;;;;1.58;1.10;;;;;;;;;;5124363;28;20129;-45
2022/04/22 02:23:48;;;;;;;1.20;0.82;;;;;;;;;;5125062;28;20488;-49
2022/04/22 02:26:13;;;;;;;2.40;0.70;;;;;;;;;;5125040;28;20054;-48
2022/04/22 02:28:39;;;;;;;1.17;0.77;;;;;;;;;;5125143;28;20043;-51
2022/04/22 02:31:04;;;;;;;2.88;1.52;;;;;;;;;;5124464;28;20127;-46
2022/04/22 02:33:30;;;;;;;2.20;0.98;;;;;;;;;;5124131;28;20073;-50
2022/04/22 02:35:56;;;;;;;1.63;0.90;;;;;;;;;;5124945;28;20035;-47
2022/04/22 02:38:21;;;;;;;5.13;1.27;;;;;;;;;;5125027;28;20055;-46
2022/04/22 02:46:14;;;;;;;1.42;0.85;;;;;;;;;;5124727;28;20935;-49
2022/04/22 02:48:39;;;;;;;1.70;1.02;;;;;;;;;;5123402;28;20063;-47
2022/04/22 02:51:05;;;;;;;2.63;1.30;;;;;;;;;;5126475;27;20035;-48
2022/04/22 02:53:30;;;;;;;1.20;0.75;;;;;;;;;;5128314;28;20055;-45
2022/04/22 02:55:56;;;;;;;0.90;0.60;;;;;;;;;;5127904;28;20552;-46
2022/04/22 02:58:21;;;;;;;1.98;1.33;;;;;;;;;;5127776;28;20039;-46
2022/04/22 03:00:47;;;;;;;1.25;0.93;;;;;;;;;;5128494;28;20039;-47
2022/04/22 03:03:12;;;;;;;1.58;1.08;;;;;;;;;;5107599;28;20081;-51
2022/04/22 03:05:38;;;;;;;1.55;0.80;;;;;;;;;;5128058;28;20055;-48
2022/04/22 03:08:03;;;;;;;1.10;0.75;;;;;;;;;;5128147;28;20039;-51
2022/04/22 03:10:29;;;;;;;1.90;1.30;;;;;;;;;;5126964;28;20108;-47
2022/04/22 03:12:55;;;;;;;1.00;0.45;;;;;;;;;;5126369;28;20041;-48
2022/04/22 03:15:20;;;;;;;0.63;0.57;;;;;;;;;;5127640;28;20126;-48
2022/04/22 03:17:46;;;;;;;1.35;1.05;;;;;;;;;;5126945;28;20490;-51
2022/04/22 03:20:12;;;;;;;0.43;0.30;;;;;;;;;;5127540;28;20047;-49
2022/04/22 03:22:37;;;;;;;2.50;1.17;;;;;;;;;;5128501;28;20097;-47
2022/04/22 03:25:03;;;;;;;1.65;0.88;;;;;;;;;;5128046;28;20118;-47
2022/04/22 03:27:28;;;;;;;1.13;0.60;;;;;;;;;;5128061;28;20042;-47
2022/04/22 03:29:53;;;;;;;1.15;0.75;;;;;;;;;;5128264;28;20767;-51
2022/04/22 03:32:19;;;;;;;1.15;0.80;;;;;;;;;;5127383;28;20458;-53
2022/04/22 03:34:44;;;;;;;0.88;0.55;;;;;;;;;;5127454;28;20589;-49
2022/04/22 03:37:09;;;;;;;0.90;0.50;;;;;;;;;;5127847;28;20069;-50
2022/04/22 03:39:35;;;;;;;0.98;0.70;;;;;;;;;;5127249;28;20798;-45
2022/04/22 03:42:00;;;;;;;1.20;0.60;;;;;;;;;;5126443;28;20085;-50
2022/04/22 03:44:26;;;;;;;1.15;0.50;;;;;;;;;;5127546;28;20043;-51
2022/04/22 03:46:51;;;;;;;1.27;0.80;;;;;;;;;;5127995;28;20084;-47
2022/04/22 03:49:17;;;;;;;0.90;0.50;;;;;;;;;;5127368;28;20533;-52
2022/04/22 03:51:42;;;;;;;1.17;0.80;;;;;;;;;;5127446;28;20047;-45
2022/04/22 03:54:08;;;;;;;1.88;0.90;;;;;;;;;;5127498;28;20510;-47
2022/04/22 03:59:17;;;;;;;1.55;0.82;;;;;;;;;;5124778;28;20046;-48
2022/04/22 04:01:43;;;;;;;0.77;0.55;;;;;;;;;;5125081;27;20472;-47
2022/04/22 04:04:08;;;;;;;0.40;0.40;;;;;;;;;;5126896;28;20062;-48
2022/04/22 04:06:35;;;;;;;1.08;0.43;;;;;;;;;;5127039;28;20046;-49
2022/04/22 04:17:09;;;;;;;6.72;1.30;;;;;;;;;;5127481;28;20113;-53
2022/04/22 04:25:03;;;;;;;0.98;0.60;;;;;;;;;;5126577;28;20053;-47
2022/04/22 04:27:29;;;;;;;1.10;0.65;;;;;;;;;;5126798;28;20039;-47
2022/04/22 04:29:55;;;;;;;0.50;0.38;;;;;;;;;;5126755;28;20054;-48
2022/04/22 04:32:20;;;;;;;0.95;0.63;;;;;;;;;;5126797;28;20553;-46
2022/04/22 04:34:45;;;;;;;0.88;0.60;;;;;;;;;;5125828;28;20116;-50
2022/04/22 04:37:12;;;;;;;0.20;0.20;;;;;;;;;;5126595;28;20043;-46
2022/04/22 04:39:38;;;;;;;6.10;0.98;;;;;;;;;;5126248;28;20066;-48
2022/04/22 04:42:03;;;;;;;2.60;1.10;;;;;;;;;;5126783;28;20070;-48
2022/04/22 04:44:28;;;;;;;1.30;0.43;;;;;;;;;;5127064;28;20051;-50
2022/04/22 04:46:54;;;;;;;1.08;0.55;;;;;;;;;;5127054;28;20671;-52
2022/04/22 04:49:19;;;;;;;1.10;0.60;;;;;;;;;;5126201;28;20119;-47
2022/04/22 04:51:45;;;;;;;1.00;0.70;;;;;;;;;;5126569;28;20035;-48
2022/04/22 04:54:10;;;;;;;1.35;0.63;;;;;;;;;;5126469;28;20035;-50
2022/04/22 04:56:35;;;;;;;3.30;1.40;;;;;;;;;;5126058;28;20539;-50
2022/04/22 04:59:00;;;;;;;1.77;0.98;;;;;;;;;;5125827;28;20073;-49
2022/04/22 05:01:26;;;;;;;1.63;0.80;;;;;;;;;;5126310;28;20122;-47
2022/04/22 05:03:51;;;;;;;2.05;0.95;;;;;;;;;;5126583;28;20449;-49
2022/04/22 05:06:16;;;;;;;2.08;0.90;;;;;;;;;;5126389;28;20108;-49
2022/04/22 05:08:42;;;;;;;0.93;0.60;;;;;;;;;;5126408;28;20123;-49
2022/04/22 05:11:07;;;;;;;11.80;1.90;;;;;;;;;;5125840;28;20126;-48
2022/04/22 05:13:32;;;;;;;2.22;1.63;;;;;;;;;;5125426;27;20121;-50
2022/04/22 05:15:58;;;;;;;1.92;1.73;;;;;;;;;;5124338;28;20106;-50
2022/04/22 05:18:23;;;;;;;3.10;1.15;;;;;;;;;;5125929;28;20092;-48
2022/04/22 05:20:49;;;;;;;2.13;1.05;;;;;;;;;;5125264;28;20037;-51
2022/04/22 05:23:14;;;;;;;1.42;0.80;;;;;;;;;;5126124;28;20039;-50
2022/04/22 05:25:40;;;;;;;1.90;1.10;;;;;;;;;;5126019;28;20410;-50
2022/04/22 05:28:06;;;;;;;1.35;0.93;;;;;;;;;;5125084;28;20051;-45
2022/04/22 05:33:15;;;;;;;1.75;0.90;;;;;;;;;;5122209;28;20475;-47
2022/04/22 05:35:41;;;;;;;2.13;1.48;;;;;;;;;;5124498;28;20495;-49
2022/04/22 05:38:07;;;;;;;1.42;0.75;;;;;;;;;;5125782;28;20385;-47
2022/04/22 05:40:39;;;;;;;2.40;1.23;;;;;;;;;;5124091;28;20493;-46
2022/04/22 05:43:06;;;;;;;2.65;1.73;;;;;;;;;;5125078;28;20728;-53
2022/04/22 05:45:32;;;;;;;1.77;1.23;;;;;;;;;;5125440;28;20047;-51
2022/04/22 05:47:57;;;;;;;11.18;4.35;;;;;;;;;;5106352;28;20383;-49
2022/04/22 05:50:23;;;;;;;3.78;2.53;;;;;;;;;;5125497;28;20038;-52
2022/04/22 05:52:49;;;;;;;2.90;2.30;;;;;;;;;;5125407;28;20070;-49
2022/04/22 05:55:16;;;;;;;1.85;1.08;;;;;;;;;;5124468;28;20092;-48
2022/04/22 05:57:42;;;;;;;5.32;1.92;;;;;;;;;;5125051;28;20047;-48
2022/04/22 06:00:09;;;;;;;1.85;0.80;;;;;;;;;;5125623;28;20095;-48
2022/04/22 06:02:35;;;;;;;2.47;0.60;;;;;;;;;;5125268;28;20043;-63
2022/04/22 06:05:00;;;;;;;14.35;2.85;;;;;;;;;;5124977;28;20108;-57
2022/04/22 06:07:26;;;;;;;1.52;0.90;;;;;;;;;;5125034;28;20120;-61
2022/04/22 06:12:35;;;;;;;8.07;1.55;;;;;;;;;;5124142;28;20042;-58
2022/04/22 06:15:02;;;;;;;10.18;2.25;;;;;;;;;;5123727;28;20043;-60
2022/04/22 06:17:28;;;;;;;5.65;3.78;;;;;;;;;;5123886;28;20098;-61
2022/04/22 06:19:53;;;;;;;5.40;4.05;;;;;;;;;;5123439;28;20047;-60
2022/04/22 06:22:18;;;;;;;7.50;3.15;;;;;;;;;;5122376;28;20180;-60
2022/04/22 06:24:44;;;;;;;2.60;1.85;;;;;;;;;;5124776;27;20081;-62
2022/04/22 06:27:09;;;;;;;5.93;2.88;;;;;;;;;;5129046;28;20035;-61
2022/04/22 06:29:35;;;;;;;24.00;7.13;;;;;;;;;;5128621;28;20678;-61
2022/04/22 06:32:02;;;;;;;10.32;9.18;;;;;;;;;;5128325;28;20058;-61
2022/04/22 06:34:27;;;;;;;14.88;7.15;;;;;;;;;;5127635;28;20067;-62
2022/04/22 06:36:53;;;;;;;7.70;5.95;;;;;;;;;;5128080;28;20170;-61
2022/04/22 06:39:18;;;;;;;4.22;3.55;;;;;;;;;;5128092;28;20491;-60
2022/04/22 06:47:11;;;;;;;2.42;1.63;;;;;;;;;;5127944;28;20078;-61
2022/04/22 06:49:37;;;;;;;4.80;2.20;;;;;;;;;;5128139;28;20082;-60
2022/04/22 06:52:02;;;;;;;3.10;1.02;;;;;;;;;;5128536;28;20047;-60
2022/04/22 06:54:28;;;;;;;2.35;1.25;;;;;;;;;;5127755;28;20035;-57
2022/04/22 06:56:53;;;;;;;2.22;1.23;;;;;;;;;;5125748;28;20519;-58
2022/04/22 06:59:21;;;;;;;3.00;1.92;;;;;;;;;;5127732;28;20106;-58
2022/04/22 07:01:47;;;;;;;13.38;10.65;;;;;;;;;;5128429;28;20050;-60
2022/04/22 07:04:12;;;;;;;8.38;7.57;;;;;;;;;;5127883;28;20461;-59
2022/04/22 07:06:38;;;;;;;5.72;4.63;;;;;;;;;;5127620;28;20516;-60
2022/04/22 07:09:06;;;;;;;3.65;3.28;;;;;;;;;;5128081;28;20135;-59
2022/04/22 07:11:34;;;;;;;5.95;5.35;;;;;;;;;;5128174;28;20051;-60
2022/04/22 07:14:00;;;;;;;6.70;4.45;;;;;;;;;;5126873;28;20116;-60
2022/04/22 07:16:25;;;;;;;3.78;1.83;;;;;;;;;;5126649;28;20039;-59
2022/04/22 07:18:55;;;;;;;11.45;3.15;;;;;;;;;;5127575;28;20514;-60
2022/04/22 07:21:23;;;;;;;4.15;2.45;;;;;;;;;;5127711;28;20132;-60
2022/04/22 07:23:49;;;;;;;2.80;1.92;;;;;;;;;;5126467;28;20295;-60
2022/04/22 07:26:16;;;;;;;1.38;0.65;;;;;;;;;;5126816;28;20498;-60
2022/04/22 07:28:44;;;;;;;3.17;0.85;;;;;;;;;;5127456;28;20506;-60
2022/04/22 07:31:10;;;;;;;8.15;2.92;;;;;;;;;;5127181;28;20035;-60
2022/04/22 07:33:35;;;;;;;2.80;1.17;;;;;;;;;;5126481;28;20103;-60
2022/04/22 07:36:00;;;;;;;1.85;1.52;;;;;;;;;;5127383;27;20051;-59
2022/04/22 07:38:26;;;;;;;1.48;0.80;;;;;;;;;;5126192;28;20034;-60
2022/04/22 07:40:51;;;;;;;6.18;0.82;;;;;;;;;;5126306;28;20073;-58
2022/04/22 07:48:46;;;;;;;0.60;0.57;;;;;;;;;;5127264;28;20050;-59
2022/04/22 07:51:12;;;;;;;0.88;0.45;;;;;;;;;;5125151;28;20119;-59
2022/04/22 07:53:37;;;;;;;8.70;1.40;;;;;;;;;;5127277;28;20085;-59
2022/04/22 07:56:03;;;;;;;0.93;0.45;;;;;;;;;;5125822;28;20072;-60
2022/04/22 07:58:31;;;;;;;4.10;0.50;;;;;;;;;;5127173;28;20204;-59
2022/04/22 08:00:57;;;;;;;1.40;0.63;;;;;;;;;;5126990;28;20079;-59
2022/04/22 08:03:22;;;;;;;4.50;0.75;;;;;;;;;;5127450;28;20074;-59
2022/04/22 08:05:47;;;;;;;2.95;0.77;;;;;;;;;;5127352;28;20465;-65
2022/04/22 08:08:12;;;;;;;2.25;0.93;;;;;;;;;;5128028;28;20485;-66
2022/04/22 08:10:38;;;;;;;0.52;0.52;;;;;;;;;;5127598;28;20504;-65
2022/04/22 08:13:05;;;;;;;1.08;0.52;;;;;;;;;;5126423;28;20035;-64
2022/04/22 08:15:31;;;;;;;1.55;0.85;;;;;;;;;;5126995;28;20046;-65
2022/04/22 08:17:56;;;;;;;1.00;0.38;;;;;;;;;;5126357;28;20480;-65
2022/04/22 08:20:21;;;;;;;1.45;0.60;;;;;;;;;;5121435;28;20118;-65
2022/04/22 08:22:47;;;;;;;2.28;0.75;;;;;;;;;;5125330;28;20079;-65
2022/04/22 08:25:12;;;;;;;1.17;0.50;;;;;;;;;;5124046;28;20039;-65
2022/04/22 08:27:38;;;;;;;3.63;1.70;;;;;;;;;;5125774;28;20075;-66
2022/04/22 08:30:05;;;;;;;3.40;1.20;;;;;;;;;;5125971;28;20083;-65
2022/04/22 08:32:30;;;;;;;2.40;0.95;;;;;;;;;;5126100;28;20078;-65
2022/04/22 08:34:55;;;;;;;0.80;0.52;;;;;;;;;;5126129;28;20067;-65
2022/04/22 08:37:21;;;;;;;1.20;0.75;;;;;;;;;;5126138;28;20078;-65
2022/04/22 08:39:47;;;;;;;1.83;0.90;;;;;;;;;;5126946;28;20042;-65
2022/04/22 08:42:14;;;;;;;4.50;0.88;;;;;;;;;;5127085;28;20513;-65
2022/04/22 08:44:40;;;;;;;2.65;1.52;;;;;;;;;;5126445;28;20070;-65
2022/04/22 08:49:58;;;;;;;1.77;1.13;;;;;;;;;;5126287;28;20133;-64
2022/04/22 08:52:25;;;;;;;1.13;0.75;;;;;;;;;;5126464;28;20038;-65
2022/04/22 08:54:52;;;;;;;5.72;1.52;;;;;;;;;;5126942;28;20574;-65
2022/04/22 08:57:19;;;;;;;8.98;1.10;;;;;;;;;;5126466;28;20054;-65
2022/04/22 08:59:44;;;;;;;0.77;0.45;;;;;;;;;;5126690;28;20127;-65
2022/04/22 09:02:09;;;;;;;1.48;1.10;;;;;;;;;;5126754;28;20485;-64
2022/04/22 09:04:35;;;;;;;0.55;0.30;;;;;;;;;;5126427;28;20466;-64
2022/04/22 09:07:01;;;;;;;2.05;0.85;;;;;;;;;;5126160;28;20089;-65
2022/04/22 09:09:27;;;;;;;1.75;0.70;;;;;;;;;;5126053;28;20570;-66
2022/04/22 09:11:53;;;;;;;3.83;1.48;;;;;;;;;;5125911;28;20054;-65
2022/04/22 09:14:23;;;;;;;1.88;1.17;;;;;;;;;;5125857;28;20047;-65
2022/04/22 09:16:50;;;;;;;1.80;1.25;;;;;;;;;;5125973;28;20043;-65
2022/04/22 09:19:18;;;;;;;1.92;0.88;;;;;;;;;;5125742;28;20085;-65
2022/04/22 09:21:54;;;;;;;1.55;0.95;;;;;;;;;;5126010;28;20050;-65
2022/04/22 09:24:20;;;;;;;0.68;0.40;;;;;;;;;;5124657;28;20051;-65
2022/04/22 09:26:45;;;;;;;0.93;0.63;;;;;;;;;;5125323;28;20116;-64
2022/04/22 09:29:11;;;;;;;1.80;0.70;;;;;;;;;;5125759;28;20055;-65
2022/04/22 09:31:46;;;;;;;4.55;1.30;;;;;;;;;;5125256;28;20139;-66
2022/04/22 09:34:11;;;;;;;1.35;0.73;;;;;;;;;;5121812;28;20054;-66
2022/04/22 09:44:50;;;;;;;3.10;1.63;;;;;;;;;;5124603;28;20438;-66
2022/04/22 09:47:15;;;;;;;9.77;1.42;;;;;;;;;;5124939;28;20035;-66
2022/04/22 09:49:44;;;;;;;3.42;1.13;;;;;;;;;;5124950;28;20118;-65
2022/04/22 09:52:09;;;;;;;5.45;1.55;;;;;;;;;;5122991;28;20115;-66
2022/04/22 09:54:34;;;;;;;3.65;1.83;;;;;;;;;;5125124;28;20110;-66
2022/04/22 09:57:01;;;;;;;1.83;1.13;;;;;;;;;;5123900;28;20042;-65
2022/04/22 09:59:32;;;;;;;6.65;2.05;;;;;;;;;;5124857;27;20201;-66
2022/04/22 10:01:58;;;;;;;5.57;1.40;;;;;;;;;;5124027;28;20047;-66
2022/04/22 10:04:23;;;;;;;9.25;2.33;;;;;;;;;;5124017;28;20040;-66
2022/04/22 10:06:49;;;;;;;2.08;0.63;;;;;;;;;;5124725;28;20494;-65
2022/04/22 10:09:15;;;;;;;1.98;0.90;;;;;;;;;;5123946;28;20446;-65
2022/04/22 10:11:41;;;;;;;2.58;1.35;;;;;;;;;;5124661;28;20039;-66
2022/04/22 10:14:09;;;;;;;2.90;1.02;;;;;;;;;;5124767;28;20083;-66
2022/04/22 10:16:34;;;;;;;3.55;1.60;;;;;;;;;;5124420;28;20161;-66
2022/04/22 10:19:01;;;;;;;34.38;26.63;;;;;;;;;;5124708;28;20695;-65
2022/04/22 10:21:26;;;;;;;1.92;1.52;;;;;;;;;;5124148;28;20265;-66
2022/04/22 10:23:52;;;;;;;9.25;2.03;;;;;;;;;;5124979;28;20521;-66
2022/04/22 10:26:18;;;;;;;8.23;1.73;;;;;;;;;;5124368;28;20050;-66
2022/04/22 10:28:46;;;;;;;4.03;1.95;;;;;;;;;;5123649;28;20545;-65
2022/04/22 10:31:11;;;;;;;1.40;0.80;;;;;;;;;;5124130;28;20039;-66
2022/04/22 10:33:44;;;;;;;2.38;1.50;;;;;;;;;;5125133;28;20794;-66
2022/04/22 10:36:13;;;;;;;2.35;1.23;;;;;;;;;;5125224;28;20047;-65
2022/04/22 10:38:41;;;;;;;3.42;1.23;;;;;;;;;;5122882;28;20127;-66
2022/04/22 10:41:19;;;;;;;1.95;1.17;;;;;;;;;;5123815;28;20055;-65
2022/04/22 10:49:17;;;;;;;6.10;2.00;;;;;;;;;;5122142;28;20164;-65
2022/04/22 10:51:57;;;;;;;2.10;1.05;;;;;;;;;;5123083;28;20051;-64
2022/04/22 10:54:43;;;;;;;2.58;1.08;;;;;;;;;;5121742;28;20047;-65
2022/04/22 10:57:16;;;;;;;4.43;2.35;;;;;;;;;;5123290;28;20157;-65
2022/04/22 10:59:41;;;;;;;1.55;0.68;;;;;;;;;;5124297;28;20043;-65
2022/04/22 11:02:29;;;;;;;5.10;1.45;;;;;;;;;;5123923;28;20051;-64
2022/04/22 11:05:13;;;;;;;2.22;0.80;;;;;;;;;;5123562;28;20245;-65
2022/04/22 11:07:50;;;;;;;3.80;1.60;;;;;;;;;;5123604;28;20187;-65
2022/04/22 11:10:15;;;;;;;6.18;2.25;;;;;;;;;;5123614;27;20047;-65
2022/04/22 11:12:57;;;;;;;1.55;0.90;;;;;;;;;;5126806;28;20046;-65
2022/04/22 11:15:40;;;;;;;1.10;0.65;;;;;;;;;;5127046;28;20402;-65
2022/04/22 11:18:06;;;;;;;7.93;1.55;;;;;;;;;;5127627;28;20043;-65
2022/04/22 11:20:35;;;;;;;4.15;1.17;;;;;;;;;;5127936;28;20657;-65
2022/04/22 11:23:00;;;;;;;4.32;1.70;;;;;;;;;;5127844;28;20062;-65
2022/04/22 11:25:26;;;;;;;1.00;0.75;;;;;;;;;;5126290;28;20580;-65
2022/04/22 11:27:55;;;;;;;0.73;0.52;;;;;;;;;;5127242;28;20509;-65
2022/04/22 11:30:22;;;;;;;4.85;2.10;;;;;;;;;;5123662;28;20095;-66
2022/04/22 11:32:49;;;;;;;3.50;1.25;;;;;;;;;;5127203;28;20054;-66
2022/04/22 11:35:14;;;;;;;2.75;1.30;;;;;;;;;;5126907;28;20212;-66
2022/04/22 11:37:40;;;;;;;5.00;1.27;;;;;;;;;;5127781;28;20169;-66
2022/04/22 11:40:08;;;;;;;1.45;0.70;;;;;;;;;;5124888;28;20039;-66
2022/04/22 11:42:39;;;;;;;2.08;0.93;;;;;;;;;;5127466;28;20039;-66
2022/04/22 11:45:06;;;;;;;3.47;2.15;;;;;;;;;;5127164;28;20093;-66
2022/04/22 11:47:31;;;;;;;1.17;0.50;;;;;;;;;;5127529;28;20505;-65
2022/04/22 11:49:57;;;;;;;3.00;1.35;;;;;;;;;;5126102;28;20039;-66
2022/04/22 11:52:22;;;;;;;2.40;1.65;;;;;;;;;;5127161;28;20114;-66
2022/04/22 11:54:48;;;;;;;1.63;0.65;;;;;;;;;;5125301;28;20367;-66
2022/04/22 11:57:16;;;;;;;2.90;1.40;;;;;;;;;;5125273;28;20145;-66
2022/04/22 12:05:31;;;;;;;5.38;2.85;;;;;;;;;;5126339;28;20588;-66
2022/04/22 12:05:33;;;;;;;1.27;0.80;;;;;;;;;;5126523;28;20118;-67
2022/04/22 12:08:07;;;;;;;24.02;1.63;;;;;;;;;;5124794;28;20095;-66
2022/04/22 12:10:33;;;;;;;3.33;1.10;;;;;;;;;;5126454;28;20051;-65
2022/04/22 12:13:02;;;;;;;5.75;1.25;;;;;;;;;;5127288;28;20063;-65
2022/04/22 12:15:28;;;;;;;1.95;1.33;;;;;;;;;;5127119;28;20065;-65
2022/04/22 12:17:53;;;;;;;1.70;0.68;;;;;;;;;;5126769;28;20126;-66
2022/04/22 12:20:19;;;;;;;2.08;0.77;;;;;;;;;;5127048;28;20628;-65
2022/04/22 12:22:44;;;;;;;1.20;0.70;;;;;;;;;;5124397;27;20108;-65
2022/04/22 12:25:13;;;;;;;6.55;1.48;;;;;;;;;;5126705;28;20480;-66
2022/04/22 12:27:39;;;;;;;2.13;1.25;;;;;;;;;;5126609;28;20129;-66
2022/04/22 12:30:06;;;;;;;12.15;2.25;;;;;;;;;;5127093;28;20595;-65
2022/04/22 12:32:32;;;;;;;1.63;0.88;;;;;;;;;;5127127;28;20051;-66
2022/04/22 12:35:16;;;;;;;11.38;2.13;;;;;;;;;;5127148;28;20503;-65
2022/04/22 12:37:42;;;;;;;1.00;0.50;;;;;;;;;;5125959;28;20053;-65
2022/04/22 12:40:09;;;;;;;1.85;1.05;;;;;;;;;;5126495;28;20043;-64
2022/04/22 12:42:35;;;;;;;1.98;1.08;;;;;;;;;;5126138;28;20050;-64
2022/04/22 12:53:50;;;;;;;7.80;1.30;;;;;;;;;;5126481;28;20050;-66
2022/04/22 12:56:15;;;;;;;4.38;0.98;;;;;;;;;;5126105;28;20047;-65
2022/04/22 12:58:51;;;;;;;3.05;1.10;;;;;;;;;;5124709;28;20130;-65
2022/04/22 13:01:18;;;;;;;10.75;0.95;;;;;;;;;;5125999;28;20055;-65
2022/04/22 13:03:43;;;;;;;7.80;2.60;;;;;;;;;;5125096;28;20059;-65
2022/04/22 13:06:09;;;;;;;4.72;1.90;;;;;;;;;;5126399;28;20134;-64
2022/04/22 13:08:34;;;;;;;0.93;0.50;;;;;;;;;;5125753;28;20502;-64
2022/04/22 13:11:02;;;;;;;1.33;0.52;;;;;;;;;;5125749;28;20042;-65
2022/04/22 13:13:27;;;;;;;9.35;1.35;;;;;;;;;;5125435;28;20106;-65
2022/04/22 13:15:53;;;;;;;5.57;1.20;;;;;;;;;;5125115;28;20043;-71
2022/04/22 13:18:20;;;;;;;7.55;1.48;;;;;;;;;;5125363;28;20047;-69
2022/04/22 13:20:45;;;;;;;1.38;1.27;;;;;;;;;;5125883;28;20039;-69
2022/04/22 13:23:11;;;;;;;7.32;0.77;;;;;;;;;;5125621;28;20049;-69
2022/04/22 13:25:36;;;;;;;1.73;1.23;;;;;;;;;;5125340;28;20143;-70
2022/04/22 13:28:02;;;;;;;1.15;0.82;;;;;;;;;;5125869;28;20031;-69
2022/04/22 13:30:28;;;;;;;2.33;1.30;;;;;;;;;;5125552;28;20035;-69
2022/04/22 13:32:53;;;;;;;1.83;1.45;;;;;;;;;;5125399;28;20154;-69
2022/04/22 13:35:20;;;;;;;4.47;1.33;;;;;;;;;;5125139;27;20050;-69
2022/04/22 13:37:46;;;;;;;2.90;1.02;;;;;;;;;;5125492;28;20042;-69
2022/04/22 13:40:11;;;;;;;2.13;1.15;;;;;;;;;;5125955;28;20031;-70
2022/04/22 13:42:36;;;;;;;9.77;1.67;;;;;;;;;;5126461;28;20046;-69
2022/04/22 13:53:14;;;;;;;1.83;0.95;;;;;;;;;;5126431;28;20104;-69
2022/04/22 13:55:39;;;;;;;1.08;0.68;;;;;;;;;;5125984;28;20394;-70
2022/04/22 13:58:04;;;;;;;7.85;1.85;;;;;;;;;;5124986;28;20039;-70
2022/04/22 14:00:30;;;;;;;3.05;1.63;;;;;;;;;;5125858;28;20110;-69
2022/04/22 14:02:56;;;;;;;0.75;0.50;;;;;;;;;;5125126;28;20050;-70
2022/04/22 14:05:22;;;;;;;1.35;1.02;;;;;;;;;;5126051;28;20118;-69
2022/04/22 14:07:49;;;;;;;3.13;1.48;;;;;;;;;;5125624;28;20043;-70
2022/04/22 14:10:15;;;;;;;3.03;1.35;;;;;;;;;;5126587;28;20035;-69
2022/04/22 14:12:41;;;;;;;1.77;0.75;;;;;;;;;;5125958;28;20050;-69
2022/04/22 14:15:06;;;;;;;1.70;1.02;;;;;;;;;;5126522;28;20028;-69
2022/04/22 14:17:31;;;;;;;3.42;1.40;;;;;;;;;;5125328;28;20502;-69
2022/04/22 14:19:57;;;;;;;3.05;1.67;;;;;;;;;;5126750;28;20053;-70
2022/04/22 14:22:22;;;;;;;3.83;1.58;;;;;;;;;;5125364;28;20047;-65
2022/04/22 14:24:47;;;;;;;6.03;1.95;;;;;;;;;;5125823;28;20495;-66
2022/04/22 14:27:15;;;;;;;7.10;2.22;;;;;;;;;;5125476;28;20135;-65
2022/04/22 14:29:40;;;;;;;4.88;1.58;;;;;;;;;;5125112;28;20055;-65
2022/04/22 14:32:07;;;;;;;6.85;2.72;;;;;;;;;;5124638;28;20054;-65
2022/04/22 14:34:33;;;;;;;5.55;2.45;;;;;;;;;;5125452;28;20074;-65
2022/04/22 14:36:58;;;;;;;6.95;2.80;;;;;;;;;;5125199;28;20522;-64
2022/04/22 14:39:23;;;;;;;3.42;2.38;;;;;;;;;;5125510;28;20043;-65
2022/04/22 14:41:49;;;;;;;5.93;2.92;;;;;;;;;;5125410;28;20069;-64
2022/04/22 14:44:14;;;;;;;5.03;2.60;;;;;;;;;;5125075;28;20031;-66
2022/04/22 14:46:40;;;;;;;2.97;2.03;;;;;;;;;;5125203;27;20404;-65
2022/04/22 14:49:06;;;;;;;12.35;3.17;;;;;;;;;;5129094;28;20059;-66
2022/04/22 14:51:31;;;;;;;6.35;2.75;;;;;;;;;;5128743;28;20527;-65
2022/04/22 14:53:56;;;;;;;10.02;3.47;;;;;;;;;;5128896;28;20340;-66
2022/04/22 14:56:22;;;;;;;13.73;3.63;;;;;;;;;;5128873;28;20124;-65
2022/04/22 14:58:49;;;;;;;5.90;3.15;;;;;;;;;;5128783;28;20047;-65
2022/04/22 15:01:14;;;;;;;18.58;4.28;;;;;;;;;;5128588;28;20043;-66
2022/04/22 15:03:40;;;;;;;18.95;3.47;;;;;;;;;;5128594;28;20186;-66
2022/04/22 15:06:06;;;;;;;6.88;3.20;;;;;;;;;;5128558;28;20163;-64
2022/04/22 15:08:31;;;;;;;5.47;2.13;;;;;;;;;;5128464;28;20059;-64
2022/04/22 15:10:58;;;;;;;17.60;3.35;;;;;;;;;;5128672;28;20050;-64
2022/04/22 15:13:23;;;;;;;7.50;2.47;;;;;;;;;;5128510;28;20047;-64
2022/04/22 15:15:49;;;;;;;9.70;3.70;;;;;;;;;;5128049;28;20574;-64
2022/04/22 15:26:26;;;;;;;8.40;2.33;;;;;;;;;;5127944;28;20054;-64
2022/04/22 15:28:52;;;;;;;60.45;32.25;;;;;;;;;;5128248;28;20130;-64
2022/04/22 15:31:17;;;;;;;12.85;7.93;;;;;;;;;;5127173;28;20485;-65
2022/04/22 15:33:44;;;;;;;3.55;1.48;;;;;;;;;;5127568;28;20047;-63
2022/04/22 15:36:10;;;;;;;7.47;3.08;;;;;;;;;;5128074;28;20050;-64
2022/04/22 15:38:41;;;;;;;3.33;1.80;;;;;;;;;;5127859;28;20051;-64
2022/04/22 15:41:07;;;;;;;26.70;5.78;;;;;;;;;;5128187;28;20050;-64
2022/04/22 15:43:42;;;;;;;7.38;4.68;;;;;;;;;;5127592;28;20046;-64
2022/04/22 15:46:08;;;;;;;11.27;3.35;;;;;;;;;;5127773;28;20780;-64
2022/04/22 15:48:34;;;;;;;7.60;4.38;;;;;;;;;;5127135;28;20126;-64
2022/04/22 15:51:00;;;;;;;15.00;3.03;;;;;;;;;;5127612;28;20051;-64
2022/04/22 15:53:25;;;;;;;9.75;2.85;;;;;;;;;;5127238;28;20158;-64
2022/04/22 15:55:50;;;;;;;10.95;4.80;;;;;;;;;;5127164;28;20043;-64
2022/04/22 15:58:17;;;;;;;13.95;2.88;;;;;;;;;;5126344;27;20142;-64
2022/04/22 16:00:42;;;;;;;14.02;5.40;;;;;;;;;;5127409;28;20054;-64
2022/04/22 16:03:10;;;;;;;10.75;3.75;;;;;;;;;;5127224;28;20047;-64
2022/04/22 16:05:35;;;;;;;8.07;3.75;;;;;;;;;;5127811;28;20110;-64